Time;durP1;ratioP1;P1;durP2;ratioP2;P2;SDS_P1;SDS_P2;PMS_P1;PMS_P2;Temp;Humidity;BMP_temperature;BMP_pressure;BME280_temperature;BME280_humidity;BME280_pressure;Samples;Min_cycle;Max_cycle;Signal;HPM_P1;HPM_P2
2022/06/22 00:01:23;;;;;;;7.37;6.87;;;;;;;25.08;86.96;98768.63;5034162;28;20200;-74
2022/06/22 00:03:54;;;;;;;10.30;8.43;;;;;;;24.98;88.21;98767.88;5049466;28;20209;-74
2022/06/22 00:06:27;;;;;;;7.57;7.17;;;;;;;24.84;89.91;98778.09;5049999;28;20665;-74
2022/06/22 00:08:56;;;;;;;7.13;6.63;;;;;;;24.69;90.83;98776.94;5049575;28;20216;-74
2022/06/22 00:11:24;;;;;;;8.07;7.47;;;;;;;24.56;90.81;98782.56;5050711;28;20197;-74
2022/06/22 00:13:53;;;;;;;7.33;6.93;;;;;;;24.54;90.51;98776.66;5050325;28;20197;-75
2022/06/22 00:16:25;;;;;;;7.23;6.83;;;;;;;24.54;90.09;98774.03;5050487;28;20208;-74
2022/06/22 00:18:53;;;;;;;7.17;6.60;;;;;;;24.39;89.53;98751.94;5050760;28;20216;-75
2022/06/22 00:21:24;;;;;;;7.50;7.00;;;;;;;24.44;89.01;98768.03;5050480;28;20196;-74
2022/06/22 00:23:54;;;;;;;7.47;6.87;;;;;;;24.46;88.94;98779.19;5049813;28;20270;-74
2022/06/22 00:26:34;;;;;;;6.50;6.10;;;;;;;24.43;87.87;98776.84;5050951;28;20197;-74
2022/06/22 00:29:21;;;;;;;8.57;6.13;;;;;;;24.50;86.89;98783.16;5050590;28;20303;-75
2022/06/22 00:32:03;;;;;;;7.37;6.77;;;;;;;24.35;86.68;98755.84;5050062;28;20209;-74
2022/06/22 00:34:32;;;;;;;6.70;6.20;;;;;;;24.49;86.83;98776.28;5050525;28;20193;-74
2022/06/22 00:37:02;;;;;;;6.23;5.73;;;;;;;24.45;86.37;98764.47;5036317;28;20657;-74
2022/06/22 00:39:37;;;;;;;5.70;5.27;;;;;;;24.50;85.36;98772.69;5035102;28;20197;-74
2022/06/22 00:42:21;;;;;;;9.40;6.13;;;;;;;24.54;84.89;98771.41;5049167;28;20287;-74
2022/06/22 00:44:52;;;;;;;6.33;5.63;;;;;;;24.59;84.57;98774.41;5050322;28;20283;-74
2022/06/22 00:47:25;;;;;;;6.87;5.70;;;;;;;24.60;84.54;98789.16;5049937;28;20213;-74
2022/06/22 00:49:56;;;;;;;6.50;6.10;;;;;;;24.56;83.91;98766.84;5050532;28;20304;-75
2022/06/22 00:52:28;;;;;;;5.90;5.40;;;;;;;24.66;83.85;98779.88;5047751;28;20205;-73
2022/06/22 00:54:55;;;;;;;6.43;6.03;;;;;;;24.63;83.98;98785.41;5049554;28;20597;-74
2022/06/22 00:57:29;;;;;;;6.33;6.03;;;;;;;24.57;84.85;98778.97;5047805;28;20254;-74
2022/06/22 01:00:01;;;;;;;6.03;5.63;;;;;;;24.55;84.24;98786.19;5048939;28;20266;-74
2022/06/22 01:02:37;;;;;;;6.53;6.13;;;;;;;24.55;84.67;98796.66;5049298;28;20227;-73
2022/06/22 01:05:16;;;;;;;6.53;6.13;;;;;;;24.47;85.10;98788.69;5049679;28;20209;-74
2022/06/22 01:07:51;;;;;;;7.07;6.47;;;;;;;24.45;84.64;98795.91;5049294;28;20220;-74
2022/06/22 01:10:24;;;;;;;6.57;6.10;;;;;;;24.42;85.36;98799.66;5038684;28;20204;-74
2022/06/22 01:12:58;;;;;;;7.30;6.83;;;;;;;24.45;84.72;98812.44;5046571;28;20204;-74
2022/06/22 01:15:32;;;;;;;6.10;5.77;;;;;;;24.47;84.37;98807.88;5049487;28;20197;-75
2022/06/22 01:18:06;;;;;;;7.10;6.50;;;;;;;24.51;83.51;98806.63;5050344;28;20665;-74
2022/06/22 01:20:45;;;;;;;5.87;5.67;;;;;;;24.54;83.27;98813.34;5050112;28;20550;-74
2022/06/22 01:23:36;;;;;;;6.47;5.97;;;;;;;24.58;82.84;98806.00;5049382;28;20213;-74
2022/06/22 01:26:22;;;;;;;6.37;5.83;;;;;;;24.60;83.25;98804.06;5035835;28;20201;-74
2022/06/22 01:28:53;;;;;;;5.83;5.33;;;;;;;24.54;82.83;98790.59;5052220;28;20219;-74
2022/06/22 01:31:20;;;;;;;6.00;5.60;;;;;;;24.61;83.07;98798.69;5053275;28;20623;-74
2022/06/22 01:33:50;;;;;;;6.83;6.20;;;;;;;24.67;82.50;98800.69;5047992;28;20620;-74
2022/06/22 01:36:23;;;;;;;5.90;5.50;;;;;;;24.68;82.25;98804.97;5033681;28;20210;-74
2022/06/22 01:38:50;;;;;;;6.03;5.53;;;;;;;24.65;82.93;98797.41;5047670;28;20224;-75
2022/06/22 01:41:28;;;;;;;5.30;5.00;;;;;;;24.66;82.57;98804.28;5053660;28;20261;-74
2022/06/22 01:44:03;;;;;;;6.53;5.43;;;;;;;24.64;82.32;98801.00;5053093;28;20676;-74
2022/06/22 01:46:42;;;;;;;5.80;5.20;;;;;;;24.68;82.02;98802.34;5053656;28;20207;-75
2022/06/22 01:49:15;;;;;;;6.63;6.07;;;;;;;24.69;82.03;98809.22;5053503;28;20229;-75
2022/06/22 01:51:47;;;;;;;6.10;5.70;;;;;;;24.70;81.28;98810.88;5051666;28;20196;-75
2022/06/22 01:54:19;;;;;;;5.67;5.20;;;;;;;24.64;81.25;98806.25;5053158;28;20197;-74
2022/06/22 01:56:50;;;;;;;6.10;5.70;;;;;;;24.62;81.66;98810.78;5052053;28;20296;-74
2022/06/22 01:59:27;;;;;;;7.00;6.30;;;;;;;24.60;81.87;98814.53;5044246;28;20204;-75
2022/06/22 02:02:00;;;;;;;6.43;6.07;;;;;;;24.60;81.80;98812.75;5052898;28;20254;-73
2022/06/22 02:04:35;;;;;;;5.93;5.33;;;;;;;24.59;81.57;98818.16;5052510;28;20204;-74
2022/06/22 02:10:02;;;;;;;6.10;5.80;;;;;;;24.62;82.10;98818.66;5049115;28;20207;-74
2022/06/22 02:12:34;;;;;;;5.70;5.30;;;;;;;24.64;81.79;98835.06;5043952;28;20201;-74
2022/06/22 02:15:07;;;;;;;6.23;5.73;;;;;;;24.64;81.54;98829.00;5050442;28;20250;-73
2022/06/22 02:17:40;;;;;;;5.63;5.43;;;;;;;24.65;81.51;98828.88;5052589;28;20207;-74
2022/06/22 02:20:29;;;;;;;5.67;5.37;;;;;;;24.67;81.10;98826.91;5050766;28;20205;-74
2022/06/22 02:23:02;;;;;;;6.47;6.07;;;;;;;24.68;81.76;98830.38;5051990;28;20255;-74
2022/06/22 02:25:33;;;;;;;6.90;6.47;;;;;;;24.66;81.74;98827.88;5052906;28;20197;-74
2022/06/22 02:28:00;;;;;;;6.60;6.20;;;;;;;24.61;82.45;98830.13;5052887;28;20577;-73
2022/06/22 02:30:29;;;;;;;6.53;6.03;;;;;;;24.54;82.34;98827.28;5043604;28;20197;-74
2022/06/22 02:32:56;;;;;;;6.13;5.73;;;;;;;24.53;82.70;98823.00;5050983;28;20201;-74
2022/06/22 02:35:23;;;;;;;6.20;5.90;;;;;;;24.47;83.20;98825.38;5052554;28;20205;-74
2022/06/22 02:37:55;;;;;;;6.83;6.53;;;;;;;24.35;82.82;98816.09;5034695;28;20577;-74
2022/06/22 02:40:27;;;;;;;6.03;5.70;;;;;;;24.24;83.54;98813.66;5047418;28;20283;-74
2022/06/22 02:45:42;;;;;;;7.37;6.60;;;;;;;24.22;83.34;98820.84;5052293;28;20309;-74
2022/06/22 02:48:25;;;;;;;6.93;6.33;;;;;;;24.09;83.13;98802.84;5050809;28;20651;-74
2022/06/22 02:51:00;;;;;;;7.17;6.50;;;;;;;24.11;83.76;98806.13;5051855;28;20196;-75
2022/06/22 02:53:33;;;;;;;6.50;6.07;;;;;;;24.12;83.21;98820.06;5051157;28;20208;-74
2022/06/22 02:56:01;;;;;;;7.30;6.70;;;;;;;24.13;83.06;98813.88;5050999;28;20200;-74
2022/06/22 02:58:31;;;;;;;7.20;6.37;;;;;;;24.11;82.80;98818.38;5049645;28;20201;-74
2022/06/22 03:01:02;;;;;;;7.20;6.70;;;;;;;24.14;82.61;98823.34;5050205;28;20228;-74
2022/06/22 03:03:30;;;;;;;6.60;6.10;;;;;;;24.16;82.25;98821.44;5050176;28;20197;-74
2022/06/22 03:05:58;;;;;;;7.03;6.53;;;;;;;24.16;81.93;98822.28;5036330;28;20208;-74
2022/06/22 03:08:26;;;;;;;8.00;7.37;;;;;;;24.15;82.43;98815.38;5047610;28;20205;-73
2022/06/22 03:10:56;;;;;;;7.13;6.63;;;;;;;24.19;82.58;98821.97;5049744;28;20200;-74
2022/06/22 03:13:29;;;;;;;7.17;6.67;;;;;;;24.20;83.02;98823.59;5049630;28;20746;-73
2022/06/22 03:15:57;;;;;;;7.67;6.93;;;;;;;24.26;82.32;98823.03;5051212;28;20572;-74
2022/06/22 03:18:29;;;;;;;8.63;7.43;;;;;;;24.30;82.33;98824.38;5051765;28;20193;-73
2022/06/22 03:21:01;;;;;;;7.57;6.97;;;;;;;24.34;82.66;98828.38;5051304;28;20201;-74
2022/06/22 03:23:39;;;;;;;8.00;7.33;;;;;;;24.39;82.06;98827.94;5051316;28;20209;-73
2022/06/22 03:26:12;;;;;;;7.60;7.03;;;;;;;24.45;82.64;98832.59;5049744;28;20209;-74
2022/06/22 03:28:41;;;;;;;8.20;7.63;;;;;;;24.47;81.83;98830.63;5049379;28;20231;-74
2022/06/22 03:31:15;;;;;;;9.90;7.43;;;;;;;24.55;82.19;98828.94;5051259;28;20236;-74
2022/06/22 03:33:48;;;;;;;8.67;7.87;;;;;;;24.62;81.19;98826.50;5051317;28;20649;-73
2022/06/22 03:36:19;;;;;;;7.93;7.40;;;;;;;24.68;80.69;98823.31;5051307;28;20585;-74
2022/06/22 03:38:52;;;;;;;8.10;7.33;;;;;;;24.74;80.58;98820.09;5051219;28;20308;-73
2022/06/22 03:41:25;;;;;;;7.53;7.00;;;;;;;24.87;81.25;98825.84;5047859;28;20201;-74
2022/06/22 03:43:57;;;;;;;7.20;6.80;;;;;;;24.95;80.76;98828.50;5046233;28;20197;-73
2022/06/22 03:46:28;;;;;;;7.93;7.33;;;;;;;25.07;80.85;98819.44;5050452;28;20669;-74
2022/06/22 03:49:02;;;;;;;8.77;8.07;;;;;;;25.23;80.23;98815.31;5049951;28;20212;-73
2022/06/22 03:51:36;;;;;;;7.87;7.37;;;;;;;25.38;79.83;98816.38;5049963;28;20216;-74
2022/06/22 03:54:10;;;;;;;14.03;7.93;;;;;;;25.52;79.58;98821.13;5047968;28;20200;-74
2022/06/22 03:56:41;;;;;;;7.30;7.00;;;;;;;25.63;79.82;98833.13;5050242;28;20212;-74
2022/06/22 03:59:08;;;;;;;7.63;7.07;;;;;;;25.74;79.01;98841.59;5050619;28;20193;-74
2022/06/22 04:01:36;;;;;;;8.53;7.43;;;;;;;25.78;78.21;98829.81;5050871;28;20196;-74
2022/06/22 04:04:05;;;;;;;7.53;7.13;;;;;;;25.83;77.91;98827.50;5050134;28;20209;-74
2022/06/22 04:06:37;;;;;;;8.67;8.07;;;;;;;25.83;78.56;98821.44;5049663;28;20746;-74
2022/06/22 04:09:10;;;;;;;8.67;7.87;;;;;;;25.84;78.06;98821.28;5049873;28;20228;-74
2022/06/22 04:11:43;;;;;;;9.87;9.07;;;;;;;25.89;77.23;98819.00;5050208;28;20204;-74
2022/06/22 04:14:15;;;;;;;9.27;7.97;;;;;;;25.93;77.23;98811.63;5050185;28;20222;-73
2022/06/22 04:16:45;;;;;;;10.30;9.30;;;;;;;25.91;77.63;98809.16;5050729;28;20206;-74
2022/06/22 04:19:16;;;;;;;12.67;10.53;;;;;;;25.86;78.02;98811.44;5050570;28;20557;-74
2022/06/22 04:21:46;;;;;;;12.43;9.77;;;;;;;25.76;76.96;98809.91;5050419;28;20208;-73
2022/06/22 04:24:15;;;;;;;11.93;9.20;;;;;;;25.73;77.24;98811.03;5047678;28;20292;-73
2022/06/22 04:26:46;;;;;;;9.33;8.30;;;;;;;25.78;77.00;98813.22;5045757;28;20197;-73
2022/06/22 04:29:18;;;;;;;8.37;7.57;;;;;;;25.84;77.09;98817.84;5050109;28;20223;-73
2022/06/22 04:31:53;;;;;;;7.17;6.50;;;;;;;25.94;76.65;98818.56;5050764;28;20668;-73
2022/06/22 04:34:37;;;;;;;7.13;6.53;;;;;;;25.96;76.03;98814.78;5050037;28;20192;-73
2022/06/22 04:37:09;;;;;;;7.17;6.47;;;;;;;26.05;76.37;98811.19;5038316;28;20205;-72
2022/06/22 04:39:42;;;;;;;6.17;5.57;;;;;;;26.13;75.27;98822.72;5030807;28;20201;-73
2022/06/22 04:42:11;;;;;;;6.43;6.13;;;;;;;26.17;75.59;98813.59;5048516;28;20208;-73
2022/06/22 04:44:45;;;;;;;9.07;5.90;;;;;;;26.28;75.24;98814.09;5033713;28;20639;-73
2022/06/22 04:47:17;;;;;;;6.60;6.00;;;;;;;26.25;75.67;98805.72;5044693;28;20222;-74
2022/06/22 04:49:50;;;;;;;8.00;7.20;;;;;;;26.41;76.64;98816.28;5048599;28;20216;-73
2022/06/22 04:52:22;;;;;;;7.57;6.90;;;;;;;26.52;76.25;98823.88;5048300;28;20209;-72
2022/06/22 04:54:54;;;;;;;6.40;5.90;;;;;;;26.54;77.12;98821.88;5048604;28;20208;-73
2022/06/22 04:57:25;;;;;;;7.37;6.57;;;;;;;26.61;75.60;98823.72;5049497;28;20553;-72
2022/06/22 04:59:53;;;;;;;7.50;7.00;;;;;;;26.68;76.45;98823.06;5050282;28;20649;-73
2022/06/22 05:02:26;;;;;;;6.70;6.17;;;;;;;26.82;75.06;98822.47;5054297;28;20205;-73
2022/06/22 05:04:59;;;;;;;6.67;6.10;;;;;;;26.98;76.58;98831.19;5053738;28;20197;-73
2022/06/22 05:07:38;;;;;;;6.63;6.33;;;;;;;27.23;74.52;98833.81;5053015;28;20201;-72
2022/06/22 05:10:11;;;;;;;6.63;6.10;;;;;;;27.45;73.40;98844.53;5052948;28;20216;-73
2022/06/22 05:12:46;;;;;;;6.40;6.00;;;;;;;27.61;73.65;98838.41;5052501;28;20196;-73
2022/06/22 05:15:20;;;;;;;6.10;5.80;;;;;;;27.82;71.30;98843.94;5049344;28;20201;-74
2022/06/22 05:17:48;;;;;;;5.83;5.53;;;;;;;27.94;70.41;98849.69;5049122;28;20577;-73
2022/06/22 05:20:25;;;;;;;6.33;5.73;;;;;;;28.07;70.30;98853.47;5051896;28;20661;-74
2022/06/22 05:22:58;;;;;;;6.07;5.57;;;;;;;28.12;68.01;98859.03;5053502;28;20212;-74
2022/06/22 05:25:25;;;;;;;6.33;5.93;;;;;;;28.13;69.68;98855.41;5053252;28;20215;-74
2022/06/22 05:28:01;;;;;;;7.07;6.53;;;;;;;28.29;69.84;98853.69;5053452;28;20197;-74
2022/06/22 05:30:35;;;;;;;7.73;6.40;;;;;;;28.40;68.16;98850.69;5053102;28;20215;-74
2022/06/22 05:33:07;;;;;;;6.73;5.77;;;;;;;28.61;67.65;98858.81;5052640;28;20283;-74
2022/06/22 05:35:40;;;;;;;6.43;6.07;;;;;;;28.76;66.59;98856.28;5052757;28;20204;-74
2022/06/22 05:38:10;;;;;;;6.30;5.63;;;;;;;28.74;65.07;98864.38;5052863;28;20231;-74
2022/06/22 05:40:40;;;;;;;5.93;5.63;;;;;;;28.87;66.46;98859.34;5050710;28;20630;-74
2022/06/22 05:43:08;;;;;;;6.97;6.47;;;;;;;29.00;67.15;98861.38;5050156;28;20224;-74
2022/06/22 05:45:40;;;;;;;8.10;7.10;;;;;;;29.03;65.48;98853.94;5048765;28;20223;-74
2022/06/22 05:48:11;;;;;;;6.83;6.53;;;;;;;29.03;65.55;98867.13;5051639;28;20224;-74
2022/06/22 05:50:43;;;;;;;6.77;6.17;;;;;;;29.13;66.10;98864.25;5052338;28;20636;-74
2022/06/22 05:53:14;;;;;;;6.90;6.50;;;;;;;29.33;65.54;98864.63;5051310;28;20205;-74
2022/06/22 05:55:49;;;;;;;6.72;6.32;;;;;;;29.44;64.72;98862.38;5052563;28;20569;-75
2022/06/22 05:58:24;;;;;;;6.30;5.80;;;;;;;29.61;66.25;98863.03;5044677;28;20219;-71
2022/06/22 06:00:53;;;;;;;7.35;6.80;;;;;;;29.78;65.00;98853.94;5050846;28;20534;-67
2022/06/22 06:03:36;;;;;;;6.95;6.55;;;;;;;30.12;62.42;98872.75;5044849;28;20581;-67
2022/06/22 06:06:11;;;;;;;6.50;6.10;;;;;;;30.25;63.15;98876.56;5050419;28;20211;-67
2022/06/22 06:08:46;;;;;;;6.65;6.03;;;;;;;30.26;62.43;98857.06;5052935;28;20736;-67
2022/06/22 06:11:17;;;;;;;6.75;6.15;;;;;;;30.60;63.37;98870.50;5052575;28;20203;-66
2022/06/22 06:13:47;;;;;;;6.28;5.85;;;;;;;30.68;61.04;98870.41;5052935;28;20204;-67
2022/06/22 06:16:26;;;;;;;6.55;6.15;;;;;;;30.75;61.69;98873.94;5044724;28;20660;-67
2022/06/22 06:18:56;;;;;;;6.55;6.05;;;;;;;30.89;61.38;98861.69;5052897;28;20197;-67
2022/06/22 06:21:32;;;;;;;6.68;6.28;;;;;;;30.98;61.32;98863.22;5053157;28;20216;-67
2022/06/22 06:24:03;;;;;;;8.90;6.60;;;;;;;31.11;61.59;98856.22;5052885;28;20200;-67
2022/06/22 06:29:40;;;;;;;7.22;6.70;;;;;;;31.23;59.54;98854.69;5023535;28;20314;-67
2022/06/22 06:32:23;;;;;;;6.82;6.43;;;;;;;31.06;60.82;98861.25;5048152;28;20258;-67
2022/06/22 06:34:56;;;;;;;6.50;6.30;;;;;;;30.93;60.90;98831.97;5052623;28;20211;-67
2022/06/22 06:37:40;;;;;;;8.20;7.57;;;;;;;31.17;60.45;98863.41;5036195;28;20228;-66
2022/06/22 06:40:12;;;;;;;8.80;6.28;;;;;;;31.11;59.94;98869.47;5050568;28;20193;-68
2022/06/22 06:42:45;;;;;;;7.40;7.00;;;;;;;31.12;63.19;98854.38;5052287;28;20228;-66
2022/06/22 06:45:16;;;;;;;7.82;7.28;;;;;;;31.43;61.19;98846.09;5051534;28;20204;-67
2022/06/22 06:47:49;;;;;;;7.03;6.63;;;;;;;31.66;61.07;98847.53;5051476;28;20215;-67
2022/06/22 06:50:22;;;;;;;7.65;7.25;;;;;;;31.91;61.11;98845.22;5049666;28;20224;-67
2022/06/22 06:53:00;;;;;;;7.68;7.18;;;;;;;32.09;59.99;98842.88;5052331;28;20565;-67
2022/06/22 06:55:35;;;;;;;11.32;7.72;;;;;;;32.22;61.06;98831.50;5052225;28;20270;-67
2022/06/22 06:58:14;;;;;;;9.70;7.25;;;;;;;32.56;59.18;98854.50;5032253;28;20197;-66
2022/06/22 07:00:42;;;;;;;8.32;7.55;;;;;;;32.60;61.09;98848.59;5050688;28;20291;-68
2022/06/22 07:03:18;;;;;;;8.82;6.75;;;;;;;32.65;56.67;98854.16;5047664;28;20209;-67
2022/06/22 07:05:46;;;;;;;8.07;7.53;;;;;;;32.66;58.82;98849.66;5032154;28;20736;-67
2022/06/22 07:08:18;;;;;;;7.18;6.55;;;;;;;32.72;56.11;98859.47;5052175;28;20196;-67
2022/06/22 07:10:51;;;;;;;8.07;7.63;;;;;;;32.67;56.56;98856.59;5051741;28;20308;-67
2022/06/22 07:13:23;;;;;;;12.45;8.23;;;;;;;32.72;58.90;98856.81;5051014;28;20200;-67
2022/06/22 07:15:56;;;;;;;9.25;8.15;;;;;;;32.83;57.57;98834.19;5051779;28;20207;-67
2022/06/22 07:18:27;;;;;;;7.45;7.05;;;;;;;33.17;57.88;98848.13;5052011;28;20193;-67
2022/06/22 07:21:02;;;;;;;8.25;7.80;;;;;;;33.34;55.87;98858.34;5051351;28;20209;-66
2022/06/22 07:23:39;;;;;;;9.35;8.65;;;;;;;33.32;54.35;98857.72;5051007;28;20200;-67
2022/06/22 07:26:14;;;;;;;8.40;7.70;;;;;;;33.64;56.45;98855.06;5051453;28;20196;-67
2022/06/22 07:28:46;;;;;;;8.40;7.95;;;;;;;33.73;53.99;98858.34;5038993;28;20619;-67
2022/06/22 07:31:18;;;;;;;8.65;8.13;;;;;;;33.84;54.34;98865.69;5050031;28;20266;-67
2022/06/22 07:33:50;;;;;;;8.48;7.88;;;;;;;33.96;53.08;98865.88;5051615;28;20219;-66
2022/06/22 07:36:23;;;;;;;10.32;9.13;;;;;;;34.04;55.37;98871.78;5050585;28;20197;-67
2022/06/22 07:39:00;;;;;;;10.20;9.40;;;;;;;34.18;52.66;98857.44;5049306;28;20970;-73
2022/06/22 07:41:29;;;;;;;8.90;8.05;;;;;;;34.34;53.03;98860.66;5048248;28;20204;-74
2022/06/22 07:43:59;;;;;;;9.15;8.50;;;;;;;34.12;49.59;98863.56;5050479;28;20217;-71
2022/06/22 07:46:31;;;;;;;10.57;9.88;;;;;;;34.27;51.21;98869.47;5050065;28;20197;-70
2022/06/22 07:49:05;;;;;;;9.52;8.93;;;;;;;34.50;50.32;98866.31;5050503;28;20309;-71
2022/06/22 07:51:33;;;;;;;11.00;8.45;;;;;;;34.52;45.70;98858.09;5049279;28;20193;-70
2022/06/22 07:54:09;;;;;;;8.75;8.18;;;;;;;34.74;47.23;98872.75;5050477;28;20251;-70
2022/06/22 07:56:47;;;;;;;8.77;8.02;;;;;;;34.70;45.65;98874.22;5047209;28;20706;-70
2022/06/22 07:59:19;;;;;;;8.15;7.63;;;;;;;34.65;46.08;98871.38;5047761;28;20209;-70
2022/06/22 08:01:49;;;;;;;8.13;7.32;;;;;;;34.62;43.55;98874.47;5046978;28;20278;-71
2022/06/22 08:04:21;;;;;;;7.57;6.88;;;;;;;34.84;44.88;98864.28;5044892;28;20204;-72
2022/06/22 08:06:54;;;;;;;8.43;7.68;;;;;;;34.87;44.74;98864.69;5046417;28;20207;-71
2022/06/22 08:09:27;;;;;;;8.32;7.57;;;;;;;34.79;46.46;98864.94;5047365;28;20200;-71
2022/06/22 08:12:01;;;;;;;8.00;7.35;;;;;;;34.85;44.08;98874.75;5048895;28;20284;-69
2022/06/22 08:14:35;;;;;;;6.97;6.57;;;;;;;35.04;44.09;98878.31;5041653;28;20199;-69
2022/06/22 08:17:04;;;;;;;7.35;6.60;;;;;;;35.03;43.41;98871.34;5044912;28;20212;-69
2022/06/22 08:19:33;;;;;;;7.80;7.18;;;;;;;35.22;44.23;98865.88;5048405;28;20208;-69
2022/06/22 08:22:04;;;;;;;6.97;6.60;;;;;;;35.25;45.10;98865.44;5048237;28;20205;-69
2022/06/22 08:24:40;;;;;;;7.82;6.93;;;;;;;35.22;44.72;98871.22;5047121;28;20251;-69
2022/06/22 08:27:09;;;;;;;5.93;5.60;;;;;;;35.26;43.61;98871.59;5045112;28;20254;-69
2022/06/22 08:29:37;;;;;;;7.70;6.57;;;;;;;35.16;43.44;98881.94;5048756;28;20204;-68
2022/06/22 08:32:08;;;;;;;7.88;7.30;;;;;;;35.13;41.69;98883.19;5048851;28;20216;-68
2022/06/22 08:34:41;;;;;;;7.40;6.88;;;;;;;35.29;44.61;98882.66;5050509;28;20734;-68
2022/06/22 08:37:13;;;;;;;7.80;7.30;;;;;;;35.47;43.58;98867.75;5050402;28;20219;-68
2022/06/22 08:39:47;;;;;;;7.53;6.93;;;;;;;35.45;43.65;98867.13;5053490;28;20669;-68
2022/06/22 08:42:26;;;;;;;6.82;6.43;;;;;;;35.58;41.93;98870.53;5045030;28;20274;-68
2022/06/22 08:45:19;;;;;;;7.32;6.75;;;;;;;35.68;42.33;98872.69;5053567;28;20584;-68
2022/06/22 08:48:10;;;;;;;7.88;6.85;;;;;;;35.61;43.36;98874.59;5054088;28;20235;-68
2022/06/22 08:51:01;;;;;;;8.43;7.38;;;;;;;35.64;42.08;98872.31;5053270;28;20216;-68
2022/06/22 08:53:38;;;;;;;6.85;6.45;;;;;;;35.89;43.43;98876.81;5052887;28;20710;-68
2022/06/22 08:56:21;;;;;;;6.82;6.32;;;;;;;35.88;41.68;98886.66;5050466;28;20204;-67
2022/06/22 08:59:08;;;;;;;13.82;6.93;;;;;;;35.65;41.33;98875.81;5051614;28;20212;-67
2022/06/22 09:01:47;;;;;;;7.40;6.88;;;;;;;35.56;40.51;98872.59;5052757;28;20254;-68
2022/06/22 09:04:37;;;;;;;7.30;6.70;;;;;;;35.62;41.48;98865.59;5053845;28;20211;-68
2022/06/22 09:07:23;;;;;;;7.88;7.20;;;;;;;35.84;40.75;98853.44;5052132;28;20212;-66
2022/06/22 09:10:09;;;;;;;7.00;6.45;;;;;;;36.07;40.45;98847.47;5052026;28;20224;-68
2022/06/22 09:12:55;;;;;;;6.82;6.47;;;;;;;36.05;41.23;98839.69;5053204;28;20291;-68
2022/06/22 09:15:36;;;;;;;8.93;7.32;;;;;;;36.13;43.04;98846.59;5043799;28;20586;-68
2022/06/22 09:18:28;;;;;;;7.78;7.38;;;;;;;36.17;41.78;98840.59;5052705;28;20212;-68
2022/06/22 09:21:06;;;;;;;7.38;6.97;;;;;;;36.24;41.64;98846.66;5051159;28;20208;-67
2022/06/22 09:23:37;;;;;;;7.53;6.93;;;;;;;36.14;40.79;98838.38;5052629;28;20687;-69
2022/06/22 09:26:28;;;;;;;7.45;7.05;;;;;;;35.95;40.84;98839.38;5047154;28;20732;-69
2022/06/22 09:29:01;;;;;;;8.27;7.68;;;;;;;35.86;40.24;98835.41;5051431;28;20561;-68
2022/06/22 09:31:57;;;;;;;7.35;6.90;;;;;;;35.64;40.89;98836.88;5039316;28;20224;-68
2022/06/22 09:34:42;;;;;;;6.95;6.28;;;;;;;35.53;42.97;98834.88;5050003;28;20653;-68
2022/06/22 09:37:37;;;;;;;7.35;6.93;;;;;;;35.55;43.42;98828.28;5047574;28;20226;-68
2022/06/22 09:40:26;;;;;;;7.25;6.80;;;;;;;35.33;43.77;98819.06;5051559;28;20208;-68
2022/06/22 09:43:11;;;;;;;9.88;7.03;;;;;;;35.11;44.34;98821.31;5050255;28;20197;-68
2022/06/22 09:45:53;;;;;;;8.07;7.22;;;;;;;35.03;45.54;98836.69;5047055;28;20584;-68
2022/06/22 09:48:50;;;;;;;9.30;7.75;;;;;;;34.65;47.25;98847.41;5048297;28;20262;-68
2022/06/22 09:51:30;;;;;;;8.30;7.70;;;;;;;34.66;47.46;98835.72;5052081;28;20227;-68
2022/06/22 09:57:22;;;;;;;10.20;6.97;;;;;;;34.66;48.29;98833.06;5018870;28;20204;-68
2022/06/22 10:00:05;;;;;;;8.85;8.30;;;;;;;34.65;48.75;98826.91;5051400;28;20211;-68
2022/06/22 10:02:59;;;;;;;9.52;8.20;;;;;;;34.71;50.47;98815.41;5051558;28;20215;-68
2022/06/22 10:05:52;;;;;;;9.15;8.35;;;;;;;34.84;49.79;98825.16;5049663;28;20247;-68
2022/06/22 10:08:32;;;;;;;8.30;7.70;;;;;;;34.75;48.03;98837.09;5051976;28;20227;-68
2022/06/22 10:11:06;;;;;;;8.05;7.47;;;;;;;34.42;49.67;98815.13;5048206;28;20228;-68
2022/06/22 10:13:49;;;;;;;9.52;8.85;;;;;;;34.22;48.74;98826.69;5049326;28;20238;-68
2022/06/22 10:16:48;;;;;;;9.27;8.63;;;;;;;34.29;51.09;98827.50;5049975;28;20204;-68
2022/06/22 10:19:35;;;;;;;9.40;8.70;;;;;;;34.17;49.76;98823.06;5049873;28;20205;-67
2022/06/22 10:22:17;;;;;;;8.70;8.05;;;;;;;33.97;48.30;98823.09;5051561;28;20196;-67
2022/06/22 10:25:22;;;;;;;7.55;7.05;;;;;;;33.93;46.70;98827.19;5050049;28;20212;-67
2022/06/22 10:28:09;;;;;;;8.40;7.15;;;;;;;33.87;47.23;98822.72;5037946;28;20263;-73
2022/06/22 10:30:48;;;;;;;7.35;6.80;;;;;;;34.10;46.45;98823.03;5051067;28;20239;-74
2022/06/22 10:33:35;;;;;;;8.13;7.18;;;;;;;34.25;44.14;98836.91;5048769;28;20212;-75
2022/06/22 10:36:23;;;;;;;7.88;5.75;;;;;;;34.34;42.99;98839.34;5046873;28;20286;-73
2022/06/22 10:39:23;;;;;;;5.97;5.47;;;;;;;34.27;42.55;98834.88;5050132;28;20228;-73
2022/06/22 10:45:09;;;;;;;6.13;5.63;;;;;;;34.17;43.53;98834.50;5051347;28;20212;-74
2022/06/22 10:47:57;;;;;;;5.93;5.53;;;;;;;33.72;45.88;98827.47;5044773;28;20584;-74
2022/06/22 10:50:35;;;;;;;5.63;5.22;;;;;;;33.86;46.99;98842.38;5050921;28;20224;-75
2022/06/22 10:53:23;;;;;;;6.15;5.65;;;;;;;33.73;46.91;98837.88;5047850;28;20335;-75
2022/06/22 10:56:00;;;;;;;6.55;5.95;;;;;;;33.63;47.46;98836.69;5049086;28;20209;-74
2022/06/22 10:58:46;;;;;;;6.00;5.70;;;;;;;33.39;46.75;98843.41;5050534;28;20235;-74
2022/06/22 11:01:36;;;;;;;6.40;6.00;;;;;;;33.35;46.82;98836.88;5050465;28;20197;-74
2022/06/22 11:04:38;;;;;;;6.70;6.15;;;;;;;33.22;48.80;98840.34;5050216;28;20266;-74
2022/06/22 11:07:35;;;;;;;6.30;5.90;;;;;;;32.71;50.96;98841.91;5050188;28;20290;-75
2022/06/22 11:10:28;;;;;;;7.18;6.65;;;;;;;32.19;53.20;98843.34;5048403;28;20208;-75
2022/06/22 11:13:13;;;;;;;12.80;7.32;;;;;;;32.21;54.46;98838.66;5037885;28;20204;-75
2022/06/22 11:15:56;;;;;;;7.38;6.72;;;;;;;32.28;56.21;98829.91;5050111;28;20201;-74
2022/06/22 11:18:43;;;;;;;9.55;7.97;;;;;;;32.12;55.00;98818.63;5049111;28;20235;-78
2022/06/22 11:21:20;;;;;;;8.32;7.72;;;;;;;31.74;54.45;98812.06;5048823;28;20283;-74
2022/06/22 11:24:05;;;;;;;9.57;8.65;;;;;;;31.62;56.81;98803.03;5049382;28;20196;-73
2022/06/22 11:33:01;;;;;;;7.68;6.25;;;;;;;30.94;59.62;98808.97;5049769;28;20698;-73
2022/06/22 11:35:45;;;;;;;6.60;6.20;;;;;;;31.17;60.05;98826.34;5048101;28;20221;-73
2022/06/22 11:38:37;;;;;;;6.13;5.72;;;;;;;31.26;57.64;98824.34;5049297;28;20227;-74
2022/06/22 11:41:20;;;;;;;8.60;7.45;;;;;;;31.30;59.15;98827.44;5042621;28;20200;-73
2022/06/22 11:44:25;;;;;;;9.52;5.05;;;;;;;31.32;55.00;98828.06;5050983;28;20568;-73
2022/06/22 11:46:56;;;;;;;5.43;5.05;;;;;;;31.37;54.40;98841.56;5049831;28;20306;-73
2022/06/22 11:49:45;;;;;;;4.30;4.03;;;;;;;31.29;55.03;98831.09;5047252;28;20201;-73
2022/06/22 11:52:41;;;;;;;16.38;5.15;;;;;;;31.44;56.37;98826.53;5048915;28;20640;-74
2022/06/22 11:55:24;;;;;;;4.38;4.07;;;;;;;31.61;57.18;98823.41;5050173;28;20220;-73
2022/06/22 11:58:19;;;;;;;4.95;4.55;;;;;;;31.89;52.67;98815.41;5049984;28;20203;-73
2022/06/22 12:00:59;;;;;;;5.47;4.97;;;;;;;32.22;54.12;98813.75;5024279;28;20205;-73
2022/06/22 12:03:57;;;;;;;6.80;6.22;;;;;;;32.43;54.50;98828.75;5049329;28;20201;-76
2022/06/22 12:06:52;;;;;;;6.18;5.68;;;;;;;32.48;57.19;98826.28;5048607;28;20676;-73
2022/06/22 12:09:33;;;;;;;6.78;6.07;;;;;;;32.48;54.96;98836.91;5045321;28;20201;-74
2022/06/22 12:12:46;;;;;;;6.30;5.78;;;;;;;32.23;53.75;98828.66;5048091;28;20243;-74
2022/06/22 12:15:30;;;;;;;7.82;6.63;;;;;;;32.17;56.32;98823.34;5044770;28;20254;-73
2022/06/22 12:18:12;;;;;;;9.13;8.40;;;;;;;31.51;56.79;98828.25;5043116;28;20212;-72
2022/06/22 12:21:02;;;;;;;7.55;6.82;;;;;;;31.29;60.37;98818.66;5044297;28;20877;-75
2022/06/22 12:23:45;;;;;;;14.73;7.50;;;;;;;31.36;61.72;98814.25;5042291;28;20774;-74
2022/06/22 12:26:22;;;;;;;6.72;6.22;;;;;;;31.43;59.68;98822.25;5040778;28;20560;-75
2022/06/22 12:29:08;;;;;;;5.80;5.28;;;;;;;31.20;59.71;98836.53;5042288;28;20196;-73
2022/06/22 12:31:39;;;;;;;7.65;7.00;;;;;;;30.94;61.59;98836.28;5042211;28;20216;-75
2022/06/22 12:34:16;;;;;;;7.95;6.82;;;;;;;30.62;60.72;98829.66;5042648;28;20202;-73
2022/06/22 12:36:48;;;;;;;7.65;6.80;;;;;;;30.53;61.28;98827.31;5039851;28;20630;-74
2022/06/22 12:39:18;;;;;;;7.60;6.53;;;;;;;30.56;63.36;98829.59;5045784;28;20236;-74